Etusivu
METAR-TAF:

METAR-TAF

Lentoasemat :

Wahoo, Nebraska, Yhdysvallat

Leveyspiiri: 41-14-26N, Pituuspiiri: 096-35-40W, korkeus merenpinnasta: 373 m

Tämänhetkinen sää

Tämä raportti tehtiin 16 minuuttia sitten, kello 04.35 UTC
Tuuli 3 kn idästä/kaakosta
Lämpötila 15°C
Kosteus 94%
Ilmanpaine 1024 hPa
Näkyvyys: 16.1 km
Hajonneita pilviä 6500 ft:n korkeudessa
Pilvistä 8000 ft:n korkeudessa

METAR: KAHQ 310435Z AUTO 11003KT 10SM BKN065 OVC080 15/14 A3024 RMK AO2 T01470141

Aika: 23:51 (04:51 UTC)


TAF: puuttuu

Säähavainnot ja -ennusteet yli 4000 lentoasemalta (METAR- ja TAF-raportit).

Käytössä olevat sääasemat on merkitty karttaan keltaisilla ja punaisilla pisteillä.

Aseta hiiri pisteen päälle nähdäksesi sääaseman nimen.

Klikkaa sitten nähdäksesi säähavainnot ja -ennusteet.

Kartan vaihtaminen: klikkaa mustalla rastilla varustettuja vihreitä pisteitä, niin voit zoomata sisään; viivalla varustettua vihreää pistettä, niin voit zoomata ulos tai vihreitä nuolia, niin pääset viereisille kartoille.


METAR-TAF: